createdAt,value
2019-02-16T00:00:59.011Z,101728.92
2019-02-16T00:04:02.560Z,101724.03
2019-02-16T00:07:06.054Z,101728.51
2019-02-16T00:10:09.510Z,101725.47
2019-02-16T00:13:13.062Z,101724.28
2019-02-16T00:16:16.512Z,101719.84
2019-02-16T00:19:20.064Z,101718.98
2019-02-16T00:22:23.513Z,101722.57
2019-02-16T00:25:29.026Z,101717.89
2019-02-16T00:28:33.540Z,101717.47
2019-02-16T00:31:37.021Z,101718.73
2019-02-16T00:34:40.554Z,101718.48
2019-02-16T00:37:45.086Z,101714.89
2019-02-16T00:40:49.591Z,101714.13
2019-02-16T00:43:53.027Z,101711.85
2019-02-16T00:46:56.487Z,101702.95
2019-02-16T00:50:01.141Z,101705.30
2019-02-16T00:53:05.633Z,101701.25
2019-02-16T00:56:09.131Z,101687.53
2019-02-16T00:59:12.568Z,101684.95
2019-02-16T01:02:16.021Z,101687.60
2019-02-16T01:05:19.598Z,101690.25
2019-02-16T01:08:23.127Z,101689.31
2019-02-16T01:11:32.613Z,101684.39
2019-02-16T01:14:36.090Z,101680.03
2019-02-16T01:17:39.595Z,101678.70
2019-02-16T01:20:43.082Z,101673.02
2019-02-16T01:23:46.577Z,101669.03
2019-02-16T01:26:50.082Z,101663.73
2019-02-16T01:29:54.623Z,101654.03
2019-02-16T01:32:58.079Z,101654.03
2019-02-16T01:36:01.652Z,101654.03
2019-02-16T01:39:05.281Z,101641.26
2019-02-16T01:42:08.817Z,101639.52
2019-02-16T01:45:12.267Z,101635.08
2019-02-16T01:48:15.914Z,101640.00
2019-02-16T01:51:20.592Z,101638.82
2019-02-16T01:54:24.054Z,101633.97
2019-02-16T01:57:27.548Z,101631.39
2019-02-16T02:00:31.108Z,101619.07
2019-02-16T02:03:35.570Z,101623.05
2019-02-16T02:06:41.183Z,101621.41
2019-02-16T02:09:44.722Z,101612.13
2019-02-16T02:12:48.175Z,101605.95
2019-02-16T02:15:51.631Z,101604.17
2019-02-16T02:18:55.133Z,101602.47
2019-02-16T02:21:58.621Z,101605.05
2019-02-16T02:25:03.198Z,101602.39
2019-02-16T02:28:07.715Z,101595.77
2019-02-16T02:31:12.208Z,101591.38
2019-02-16T02:34:15.719Z,101594.44
2019-02-16T02:37:19.216Z,101589.13
2019-02-16T02:40:24.755Z,101589.13
2019-02-16T02:43:29.280Z,101590.46
2019-02-16T02:46:33.832Z,101590.84
2019-02-16T02:49:37.393Z,101589.52
2019-02-16T02:52:41.034Z,101587.81
2019-02-16T02:55:44.510Z,101592.17
2019-02-16T02:58:48.218Z,101589.03
2019-02-16T03:01:51.610Z,101585.23
2019-02-16T03:04:55.209Z,101582.51
2019-02-16T03:07:58.655Z,101586.87
2019-02-16T03:11:02.138Z,101582.09
2019-02-16T03:14:05.612Z,101579.44
2019-02-16T03:17:09.126Z,101579.52
2019-02-16T03:20:12.617Z,101575.22
2019-02-16T03:23:21.960Z,101573.89
2019-02-16T03:27:08.209Z,101573.97
2019-02-16T03:31:01.339Z,101576.16
2019-02-16T03:34:10.394Z,101579.73
2019-02-16T03:38:01.599Z,101575.36
2019-02-16T03:41:05.172Z,101579.83
2019-02-16T03:44:08.686Z,101575.50
2019-02-16T03:47:12.326Z,101570.20
2019-02-16T03:50:15.813Z,101568.49
2019-02-16T03:53:19.265Z,101566.64
2019-02-16T03:56:24.744Z,101568.35
2019-02-16T03:59:28.223Z,101561.34
2019-02-16T04:02:31.725Z,101561.34
2019-02-16T04:05:35.255Z,101550.73
2019-02-16T04:08:38.722Z,101550.73
2019-02-16T04:11:42.262Z,101547.14
2019-02-16T04:14:45.926Z,101550.66
2019-02-16T04:17:49.442Z,101548.47
2019-02-16T04:20:52.942Z,101551.12
2019-02-16T04:23:56.388Z,101549.80
2019-02-16T04:26:59.876Z,101549.80
2019-02-16T04:30:05.472Z,101544.04
2019-02-16T04:33:08.988Z,101546.76
2019-02-16T04:36:12.491Z,101550.73
2019-02-16T04:39:17.130Z,101548.47
2019-02-16T04:42:21.651Z,101545.36
2019-02-16T04:45:25.139Z,101538.31
2019-02-16T04:48:28.649Z,101534.83
2019-02-16T04:51:32.157Z,101530.92
2019-02-16T04:54:35.687Z,101527.48
2019-02-16T04:57:39.139Z,101529.19
2019-02-16T05:00:44.710Z,101529.67
2019-02-16T05:03:50.246Z,101526.67
2019-02-16T05:06:53.748Z,101520.92
2019-02-16T05:09:57.239Z,101521.86
2019-02-16T05:13:00.747Z,101516.25
2019-02-16T05:16:04.245Z,101510.46
2019-02-16T05:19:07.777Z,101514.44
2019-02-16T05:22:12.283Z,101511.41
2019-02-16T05:25:15.771Z,101511.78
2019-02-16T05:28:19.341Z,101513.11
2019-02-16T05:31:22.898Z,101517.09
2019-02-16T05:34:26.590Z,101510.46
2019-02-16T05:37:30.609Z,101507.81
2019-02-16T05:40:34.201Z,101507.81
2019-02-16T05:43:37.650Z,101510.88
2019-02-16T05:46:41.095Z,101506.90
2019-02-16T05:49:46.547Z,101510.88
2019-02-16T05:52:54.681Z,101511.26
2019-02-16T05:55:57.536Z,101509.06
2019-02-16T05:59:01.058Z,101504.25
2019-02-16T06:02:04.532Z,101506.90
2019-02-16T06:05:08.053Z,101512.59
2019-02-16T06:08:11.534Z,101520.05
2019-02-16T06:11:16.996Z,101513.60
2019-02-16T06:14:20.487Z,101515.37
2019-02-16T06:17:25.096Z,101513.67
2019-02-16T06:20:30.671Z,101516.70
2019-02-16T06:23:34.164Z,101507.95
2019-02-16T06:26:38.687Z,101511.93
2019-02-16T06:29:43.215Z,101510.67
2019-02-16T06:32:46.716Z,101507.57
2019-02-16T06:35:53.283Z,101515.14
2019-02-16T06:38:56.806Z,101509.35
2019-02-16T06:42:00.292Z,101506.80
2019-02-16T06:45:03.867Z,101506.80
2019-02-16T06:48:07.502Z,101507.72
2019-02-16T06:51:12.150Z,101509.04
2019-02-16T06:54:15.711Z,101508.13
2019-02-16T06:57:28.457Z,101508.13
2019-02-16T07:00:33.021Z,101508.13
2019-02-16T07:03:36.565Z,101503.67
2019-02-16T07:06:40.066Z,101503.21
2019-02-16T07:09:43.566Z,101507.19
2019-02-16T07:12:48.209Z,101508.52
2019-02-16T07:16:28.143Z,101502.66
2019-02-16T07:19:41.174Z,101514.66
2019-02-16T07:22:44.626Z,101510.22
2019-02-16T07:25:48.083Z,101516.84
2019-02-16T07:28:53.627Z,101510.30
2019-02-16T07:31:57.148Z,101508.52
2019-02-16T07:35:01.649Z,101508.97
2019-02-16T07:38:05.176Z,101505.86
2019-02-16T07:41:10.697Z,101500.56
2019-02-16T07:44:22.813Z,101508.89
2019-02-16T07:47:34.499Z,101504.47
2019-02-16T07:51:15.463Z,101504.92
2019-02-16T07:54:33.251Z,101498.85
2019-02-16T07:57:48.890Z,101498.85
2019-02-16T08:01:00.310Z,101495.79
2019-02-16T08:04:29.027Z,101494.08
2019-02-16T08:07:42.726Z,101498.05
2019-02-16T08:10:58.812Z,101502.41
2019-02-16T08:14:10.540Z,101500.95
2019-02-16T08:17:27.010Z,101501.19
2019-02-16T08:20:52.266Z,101492.70
2019-02-16T08:24:03.807Z,101491.23
2019-02-16T08:27:26.305Z,101492.80
2019-02-16T08:30:39.686Z,101495.30
2019-02-16T08:34:01.320Z,101493.27
2019-02-16T08:37:21.710Z,101492.88
2019-02-16T08:40:50.120Z,101491.34
2019-02-16T08:44:15.821Z,101488.99
2019-02-16T08:47:26.896Z,101489.79
2019-02-16T08:50:36.336Z,101486.19
2019-02-16T08:53:49.914Z,101486.58
2019-02-16T08:56:56.959Z,101480.73
2019-02-16T09:00:18.352Z,101480.73
2019-02-16T09:03:32.928Z,101473.63
2019-02-16T09:07:03.165Z,101478.39
2019-02-16T09:10:27.114Z,101469.98
2019-02-16T09:13:43.042Z,101469.41
2019-02-16T09:16:56.065Z,101473.25
2019-02-16T09:20:21.570Z,101467.41
2019-02-16T09:23:35.412Z,101463.43
2019-02-16T09:26:47.620Z,101459.38
2019-02-16T09:30:04.287Z,101457.48
2019-02-16T09:33:27.468Z,101452.52
2019-02-16T09:36:56.783Z,101454.26
2019-02-16T09:40:18.411Z,101454.18
2019-02-16T09:43:37.406Z,101454.94
2019-02-16T09:46:53.688Z,101453.16
2019-02-16T09:50:16.245Z,101454.48
2019-02-16T09:53:31.835Z,101459.41
2019-02-16T09:56:42.709Z,101458.08
2019-02-16T09:59:54.813Z,101456.19
2019-02-16T10:03:09.350Z,101454.86
2019-02-16T10:06:23.646Z,101453.38
2019-02-16T10:09:46.258Z,101443.94
2019-02-16T10:13:07.679Z,101446.52
2019-02-16T10:16:45.378Z,101444.16
2019-02-16T10:20:20.345Z,101441.89
2019-02-16T10:23:36.645Z,101444.88
2019-02-16T10:26:56.826Z,101435.33
2019-02-16T10:30:27.685Z,101435.25
2019-02-16T10:33:41.595Z,101428.00
2019-02-16T10:37:19.465Z,101425.34
2019-02-16T10:40:56.990Z,101427.43
2019-02-16T10:44:12.624Z,101420.26
2019-02-16T10:47:32.656Z,101416.95
2019-02-16T10:50:48.270Z,101416.34
2019-02-16T10:54:14.147Z,101415.80
2019-02-16T10:57:37.886Z,101410.70
2019-02-16T11:00:59.503Z,101401.80
2019-02-16T11:04:09.766Z,101397.81
2019-02-16T11:07:23.612Z,101392.88
2019-02-16T11:10:52.316Z,101399.93
2019-02-16T11:14:13.190Z,101392.34
2019-02-16T11:17:37.197Z,101392.34
2019-02-16T11:20:57.270Z,101391.02
2019-02-16T11:24:18.828Z,101386.00
2019-02-16T11:27:43.504Z,101386.87
2019-02-16T11:31:04.952Z,101387.08
2019-02-16T11:34:19.723Z,101381.23
2019-02-16T11:37:38.635Z,101375.72
2019-02-16T11:40:53.309Z,101372.16
2019-02-16T11:44:11.062Z,101374.64
2019-02-16T11:47:39.081Z,101367.05
2019-02-16T11:51:22.828Z,101364.27
2019-02-16T11:54:50.528Z,101360.11
2019-02-16T11:58:23.744Z,101361.03
2019-02-16T12:01:46.372Z,101358.59
2019-02-16T12:04:58.073Z,101356.25
2019-02-16T12:08:14.180Z,101348.95
2019-02-16T12:11:25.047Z,101343.64
2019-02-16T12:14:46.310Z,101340.81
2019-02-16T12:18:06.994Z,101344.26
2019-02-16T12:21:29.676Z,101336.58
2019-02-16T12:25:05.439Z,101329.48
2019-02-16T12:28:23.649Z,101328.90
2019-02-16T12:31:45.866Z,101323.88
2019-02-16T12:35:03.633Z,101323.04
2019-02-16T12:38:13.765Z,101316.40
2019-02-16T12:41:29.430Z,101311.29
2019-02-16T12:45:09.524Z,101309.96
2019-02-16T12:48:26.700Z,101301.32
2019-02-16T12:51:52.784Z,101296.50
2019-02-16T12:55:24.993Z,101291.94
2019-02-16T12:58:34.546Z,101283.79
2019-02-16T13:01:58.351Z,101280.21
2019-02-16T13:05:11.318Z,101279.08
2019-02-16T13:08:37.011Z,101271.86
2019-02-16T13:11:49.596Z,101273.59
2019-02-16T13:15:19.306Z,101274.63
2019-02-16T13:18:30.549Z,101266.09
2019-02-16T13:21:41.780Z,101267.34
2019-02-16T13:25:24.123Z,101258.78
2019-02-16T13:28:34.377Z,101268.77
2019-02-16T13:32:00.486Z,101271.72
2019-02-16T13:35:23.510Z,101267.18
2019-02-16T13:38:44.897Z,101263.94
2019-02-16T13:41:57.874Z,101253.13
2019-02-16T13:45:20.973Z,101248.61
2019-02-16T13:48:32.630Z,101243.67
2019-02-16T13:51:43.218Z,101242.63
2019-02-16T13:54:57.634Z,101247.76
2019-02-16T13:58:19.228Z,101235.33
2019-02-16T14:01:39.071Z,101228.09
2019-02-16T14:04:53.938Z,101224.02
2019-02-16T14:08:13.499Z,101230.58
2019-02-16T14:11:35.872Z,101220.71
2019-02-16T14:14:52.252Z,101219.75
2019-02-16T14:17:56.876Z,101217.09
2019-02-16T14:21:00.316Z,101214.25
2019-02-16T14:24:03.880Z,101212.92
2019-02-16T14:27:07.563Z,101215.02
2019-02-16T14:30:11.261Z,101212.37
2019-02-16T14:33:14.815Z,101211.59
2019-02-16T14:36:19.355Z,101210.94
2019-02-16T14:39:29.989Z,101207.14
2019-02-16T14:42:35.664Z,101203.80
2019-02-16T14:45:40.543Z,101203.42
2019-02-16T14:48:44.187Z,101204.56
2019-02-16T14:51:47.677Z,101205.58
2019-02-16T14:54:51.186Z,101203.02
2019-02-16T14:57:54.683Z,101198.72
2019-02-16T15:00:58.357Z,101190.09
2019-02-16T15:04:01.973Z,101181.71
2019-02-16T15:07:06.932Z,101186.28
2019-02-16T15:10:10.886Z,101190.45
2019-02-16T15:13:16.793Z,101192.34
2019-02-16T15:16:20.438Z,101190.27
2019-02-16T15:19:25.718Z,101197.46
2019-02-16T15:22:29.455Z,101195.39
2019-02-16T15:25:33.331Z,101198.97
2019-02-16T15:28:36.882Z,101205.24
2019-02-16T15:31:41.417Z,101204.50
2019-02-16T15:34:44.897Z,101204.09
2019-02-16T15:37:48.409Z,101212.06
2019-02-16T15:40:51.915Z,101206.37
2019-02-16T15:43:57.438Z,101204.96
2019-02-16T15:47:00.936Z,101204.09
2019-02-16T15:50:04.584Z,101206.66
2019-02-16T15:53:09.045Z,101207.16
2019-02-16T15:56:12.671Z,101216.05
2019-02-16T15:59:16.118Z,101217.78
2019-02-16T16:02:20.500Z,101220.44
2019-02-16T16:05:23.951Z,101217.78
2019-02-16T16:08:33.389Z,101218.34
2019-02-16T16:11:50.242Z,101210.45
2019-02-16T16:15:22.450Z,101217.96
2019-02-16T16:18:37.713Z,101213.98
2019-02-16T16:21:46.105Z,101215.77
2019-02-16T16:25:01.275Z,101213.57
2019-02-16T16:28:18.988Z,101209.22
2019-02-16T16:31:27.928Z,101214.53
2019-02-16T16:34:47.431Z,101223.83
2019-02-16T16:37:59.167Z,101226.86
2019-02-16T16:41:17.908Z,101226.95
2019-02-16T16:44:43.462Z,101234.08
2019-02-16T16:48:13.024Z,101233.22
2019-02-16T16:51:45.704Z,101238.62
2019-02-16T16:54:59.650Z,101230.65
2019-02-16T16:58:21.279Z,101231.61
2019-02-16T17:01:59.134Z,101227.62
2019-02-16T17:05:10.715Z,101227.62
2019-02-16T17:08:42.488Z,101230.83
2019-02-16T17:11:58.615Z,101234.44
2019-02-16T17:15:27.955Z,101238.42
2019-02-16T17:18:58.463Z,101243.36
2019-02-16T17:22:09.220Z,101242.50
2019-02-16T17:25:24.304Z,101236.81
2019-02-16T17:28:48.942Z,101235.94
2019-02-16T17:32:00.887Z,101231.13
2019-02-16T17:35:17.493Z,101226.82
2019-02-16T17:38:40.154Z,101234.79
2019-02-16T17:42:00.134Z,101227.77
2019-02-16T17:45:21.700Z,101229.11
2019-02-16T17:48:40.022Z,101227.77
2019-02-16T17:52:11.751Z,101227.95
2019-02-16T17:55:35.854Z,101229.37
2019-02-16T17:58:45.110Z,101231.19
2019-02-16T18:02:06.509Z,101227.38
2019-02-16T18:05:28.585Z,101230.50
2019-02-16T18:08:51.208Z,101226.23
2019-02-16T18:12:13.740Z,101229.72
2019-02-16T18:15:29.543Z,101226.23
2019-02-16T18:18:51.947Z,101228.39
2019-02-16T18:22:15.654Z,101229.17
2019-02-16T18:25:38.210Z,101230.03
2019-02-16T18:28:57.447Z,101228.30
2019-02-16T18:32:19.457Z,101232.69
2019-02-16T18:35:40.814Z,101238.01
2019-02-16T18:38:50.514Z,101236.67
2019-02-16T18:42:02.984Z,101230.50
2019-02-16T18:45:20.792Z,101228.71
2019-02-16T18:48:49.724Z,101233.53
2019-02-16T18:52:11.651Z,101231.73
2019-02-16T18:55:34.199Z,101232.20
2019-02-16T18:58:50.530Z,101235.34
2019-02-16T19:02:08.256Z,101232.28
2019-02-16T19:05:23.601Z,101233.61
2019-02-16T19:08:49.321Z,101239.33
2019-02-16T19:11:58.503Z,101234.02
2019-02-16T19:15:18.197Z,101236.19
2019-02-16T19:18:30.877Z,101235.72
2019-02-16T19:21:48.302Z,101233.53
2019-02-16T19:24:59.071Z,101238.01
2019-02-16T19:28:12.593Z,101232.28
2019-02-16T19:31:33.860Z,101235.34
2019-02-16T19:34:49.593Z,101236.27
2019-02-16T19:38:18.280Z,101231.73
2019-02-16T19:41:32.139Z,101223.39
2019-02-16T19:44:54.392Z,101230.03
2019-02-16T19:48:18.616Z,101219.87
2019-02-16T19:51:41.131Z,101222.98
2019-02-16T19:55:04.611Z,101221.29
2019-02-16T19:58:23.365Z,101222.98
2019-02-16T20:01:40.907Z,101224.41
2019-02-16T20:05:02.173Z,101222.98
2019-02-16T20:08:26.074Z,101223.95
2019-02-16T20:11:43.206Z,101225.27
2019-02-16T20:14:59.298Z,101229.26
2019-02-16T20:18:16.846Z,101223.95
2019-02-16T20:21:39.618Z,101230.59
2019-02-16T20:25:01.023Z,101220.55
2019-02-16T20:28:26.489Z,101233.82
2019-02-16T20:31:39.825Z,101228.51
2019-02-16T20:34:58.389Z,101232.49
2019-02-16T20:38:33.303Z,101227.55
2019-02-16T20:41:45.842Z,101229.84
2019-02-16T20:44:59.467Z,101232.49
2019-02-16T20:48:10.345Z,101227.19
2019-02-16T20:51:31.766Z,101225.85
2019-02-16T20:54:53.220Z,101230.30
2019-02-16T20:58:07.763Z,101230.76
2019-02-16T21:01:29.014Z,101232.49
2019-02-16T21:04:50.086Z,101228.51
2019-02-16T21:08:10.277Z,101230.30
2019-02-16T21:11:35.698Z,101232.09
2019-02-16T21:14:53.997Z,101233.41
2019-02-16T21:18:09.422Z,101240.05
2019-02-16T21:21:39.124Z,101235.70
2019-02-16T21:24:54.418Z,101235.70
2019-02-16T21:28:15.321Z,101227.27
2019-02-16T21:31:23.766Z,101226.77
2019-02-16T21:34:35.790Z,101219.77
2019-02-16T21:37:58.309Z,101225.08
2019-02-16T21:41:09.863Z,101227.73
2019-02-16T21:44:35.397Z,101236.94
2019-02-16T21:47:57.972Z,101234.17
2019-02-16T21:51:25.699Z,101227.13
2019-02-16T21:54:46.602Z,101235.84
2019-02-16T21:57:57.095Z,101231.62
2019-02-16T22:01:18.634Z,101234.45
2019-02-16T22:04:41.156Z,101235.87
2019-02-16T22:08:07.131Z,101235.20
2019-02-16T22:11:29.618Z,101235.45
2019-02-16T22:14:33.143Z,101239.90
2019-02-16T22:17:36.616Z,101243.09
2019-02-16T22:20:40.070Z,101248.90
2019-02-16T22:23:43.638Z,101243.30
2019-02-16T22:26:47.088Z,101248.70
2019-02-16T22:29:50.544Z,101251.60
2019-02-16T22:32:54.024Z,101257.86
2019-02-16T22:35:58.677Z,101261.44
2019-02-16T22:39:03.977Z,101262.93
2019-02-16T22:42:07.591Z,101262.55
2019-02-16T22:45:11.411Z,101271.55
2019-02-16T22:48:18.156Z,101269.36
2019-02-16T22:51:21.595Z,101278.73
2019-02-16T22:54:25.148Z,101275.41
2019-02-16T22:57:28.849Z,101272.91
2019-02-16T23:00:45.712Z,101270.64
2019-02-16T23:03:49.230Z,101269.88
2019-02-16T23:06:53.724Z,101273.86
2019-02-16T23:09:57.179Z,101273.95
2019-02-16T23:13:00.635Z,101274.56
2019-02-16T23:16:04.229Z,101282.53
2019-02-16T23:19:07.845Z,101278.17
2019-02-16T23:22:11.335Z,101280.45
2019-02-16T23:25:14.856Z,101287.16
2019-02-16T23:28:18.340Z,101282.48
2019-02-16T23:31:21.936Z,101278.05
2019-02-16T23:34:25.407Z,101276.88
2019-02-16T23:37:30.022Z,101276.95
2019-02-16T23:40:36.514Z,101279.61
2019-02-16T23:43:40.039Z,101280.48
2019-02-16T23:46:43.534Z,101282.34
2019-02-16T23:49:46.988Z,101280.56
2019-02-16T23:52:52.583Z,101282.42
2019-02-16T23:55:56.096Z,101278.53
2019-02-16T23:58:59.586Z,101275.58
